Time;durP1;ratioP1;P1;durP2;ratioP2;P2;SDS_P1;SDS_P2;PMS_P1;PMS_P2;Temp;Humidity;BMP_temperature;BMP_pressure;BME280_temperature;BME280_humidity;BME280_pressure;Samples;Min_cycle;Max_cycle;Signal;HPM_P1;HPM_P2
2022/04/15 00:01:43;;;;;;;22.10;18.90;;;11.10;99.90;;;;;;5074182;28;20534;-78
2022/04/15 00:04:09;;;;;;;21.37;17.90;;;11.10;99.90;;;;;;5073552;28;20446;-77
2022/04/15 00:06:36;;;;;;;24.40;18.93;;;11.10;99.90;;;;;;5074410;28;20505;-77
2022/04/15 00:09:04;;;;;;;22.20;17.70;;;11.00;99.90;;;;;;5073472;28;21021;-80
2022/04/15 00:11:31;;;;;;;20.90;17.00;;;11.00;99.90;;;;;;5070291;28;20816;-79
2022/04/15 00:13:58;;;;;;;22.00;17.70;;;11.00;99.90;;;;;;5062973;28;20476;-78
2022/04/15 00:16:25;;;;;;;22.93;17.87;;;10.90;99.90;;;;;;5061366;28;20527;-79
2022/04/15 00:18:52;;;;;;;21.40;17.93;;;10.90;99.90;;;;;;5061274;28;20435;-79
2022/04/15 00:21:19;;;;;;;23.20;18.23;;;10.80;99.90;;;;;;5062321;28;20445;-79
2022/04/15 00:23:45;;;;;;;23.53;18.17;;;10.80;99.90;;;;;;5061811;28;20457;-79
2022/04/15 00:26:13;;;;;;;21.63;17.10;;;10.80;99.90;;;;;;5061488;28;20449;-79
2022/04/15 00:28:40;;;;;;;27.20;18.13;;;10.80;99.90;;;;;;5062040;28;20450;-79
2022/04/15 00:31:06;;;;;;;20.00;16.77;;;10.80;99.90;;;;;;5066378;28;20444;-78
2022/04/15 00:33:33;;;;;;;27.27;16.73;;;10.80;99.90;;;;;;5068397;28;20457;-78
2022/04/15 00:36:00;;;;;;;21.23;17.20;;;10.80;99.90;;;;;;5067411;28;20484;-80
2022/04/15 00:38:26;;;;;;;17.67;14.93;;;10.80;99.90;;;;;;5061109;28;20971;-79
2022/04/15 00:40:53;;;;;;;22.87;15.93;;;10.80;99.90;;;;;;5060298;28;20478;-79
2022/04/15 00:43:21;;;;;;;22.47;16.60;;;10.80;99.90;;;;;;5061169;28;20441;-79
2022/04/15 00:45:47;;;;;;;16.83;14.90;;;10.80;99.90;;;;;;5060369;28;20453;-80
2022/04/15 00:48:16;;;;;;;17.73;15.03;;;10.80;99.90;;;;;;5068620;28;20885;-77
2022/04/15 00:53:24;;;;;;;19.00;14.50;;;10.80;99.90;;;;;;5077812;28;20481;-81
2022/04/15 00:55:54;;;;;;;24.60;15.77;;;10.80;99.90;;;;;;5079187;28;20844;-81
2022/04/15 00:58:24;;;;;;;16.93;14.87;;;10.80;99.90;;;;;;5078503;28;20433;-81
2022/04/15 01:00:53;;;;;;;21.20;15.60;;;10.80;99.90;;;;;;5078742;28;20455;-80
2022/04/15 01:03:21;;;;;;;20.23;15.97;;;10.80;99.90;;;;;;5078722;28;20447;-80
2022/04/15 01:05:49;;;;;;;18.50;14.30;;;10.80;99.90;;;;;;5078900;28;20561;-81
2022/04/15 01:08:21;;;;;;;16.47;13.03;;;10.80;99.90;;;;;;5078691;28;20472;-81
2022/04/15 01:10:49;;;;;;;16.10;13.27;;;10.80;99.90;;;;;;5080102;28;20849;-79
2022/04/15 01:13:16;;;;;;;14.97;13.00;;;10.80;99.90;;;;;;5079986;28;20448;-81
2022/04/15 01:15:45;;;;;;;14.27;12.77;;;10.80;99.90;;;;;;5079357;28;20480;-81
2022/04/15 01:18:11;;;;;;;12.93;11.53;;;10.80;99.90;;;;;;5079455;28;20469;-81
2022/04/15 01:20:40;;;;;;;17.30;11.37;;;10.90;99.90;;;;;;5079618;28;20460;-81
2022/04/15 01:23:09;;;;;;;15.50;11.77;;;10.80;99.90;;;;;;5077415;28;20483;-80
2022/04/15 01:25:37;;;;;;;13.70;12.03;;;10.70;99.90;;;;;;5077947;28;20412;-81
2022/04/15 01:28:04;;;;;;;12.90;10.43;;;10.70;99.90;;;;;;5080459;28;20478;-80
2022/04/15 01:30:31;;;;;;;11.70;9.80;;;10.70;99.90;;;;;;5085417;28;20468;-81
2022/04/15 01:33:03;;;;;;;9.83;8.70;;;11.40;99.90;;;;;;5078338;28;20975;-80
2022/04/15 01:35:30;;;;;;;10.80;9.00;;;9.90;99.90;;;;;;5077644;28;20987;-80
2022/04/15 01:37:59;;;;;;;8.97;7.50;;;10.60;99.90;;;;;;5089210;28;20441;-79
2022/04/15 01:40:27;;;;;;;9.13;8.23;;;10.40;99.90;;;;;;5089296;28;20487;-80
2022/04/15 01:42:54;;;;;;;9.97;8.20;;;10.30;99.90;;;;;;5086811;28;20468;-80
2022/04/15 01:45:20;;;;;;;12.03;10.10;;;10.20;99.90;;;;;;5087874;28;20455;-79
2022/04/15 01:47:47;;;;;;;9.27;8.23;;;10.20;99.90;;;;;;5085179;28;20473;-79
2022/04/15 01:50:13;;;;;;;12.27;9.07;;;10.20;99.90;;;;;;5078010;28;20426;-80
2022/04/15 01:52:40;;;;;;;13.23;10.00;;;10.20;99.90;;;;;;5078085;28;20487;-81
2022/04/15 01:55:07;;;;;;;10.93;9.33;;;10.20;99.90;;;;;;5077800;28;20438;-80
2022/04/15 01:57:35;;;;;;;14.80;10.50;;;10.20;99.90;;;;;;5077619;28;20496;-79
2022/04/15 02:00:02;;;;;;;15.83;11.80;;;10.00;99.90;;;;;;5078720;28;20449;-81
2022/04/15 02:02:28;;;;;;;14.60;10.73;;;9.80;99.90;;;;;;5079039;28;20467;-79
2022/04/15 02:04:55;;;;;;;14.00;10.83;;;10.00;99.90;;;;;;5079438;28;20449;-81
2022/04/15 02:07:22;;;;;;;16.67;10.67;;;10.00;99.90;;;;;;5079111;28;20469;-81
2022/04/15 02:09:48;;;;;;;12.10;9.40;;;10.00;99.90;;;;;;5078645;28;20856;-80
2022/04/15 02:12:15;;;;;;;10.40;9.30;;;9.80;99.90;;;;;;5077908;28;20460;-81
2022/04/15 02:14:43;;;;;;;10.73;9.03;;;9.80;99.90;;;;;;5080102;28;20975;-80
2022/04/15 02:17:09;;;;;;;15.10;9.93;;;9.50;99.90;;;;;;5084283;28;20512;-79
2022/04/15 02:19:36;;;;;;;14.03;8.20;;;9.60;99.90;;;;;;5083337;28;20454;-81
2022/04/15 02:22:03;;;;;;;9.57;8.53;;;9.40;99.90;;;;;;5083401;28;20450;-80
2022/04/15 02:24:29;;;;;;;14.73;9.10;;;9.60;99.90;;;;;;5081309;28;20444;-79
2022/04/15 02:26:56;;;;;;;11.70;9.40;;;9.50;99.90;;;;;;5080715;28;20947;-79
2022/04/15 02:29:24;;;;;;;11.60;9.40;;;9.60;99.90;;;;;;5083280;28;21037;-79
2022/04/15 02:31:52;;;;;;;12.47;9.73;;;9.60;99.90;;;;;;5092210;28;20475;-80
2022/04/15 02:34:18;;;;;;;10.80;9.60;;;9.50;99.90;;;;;;5095594;28;20453;-79
2022/04/15 02:36:45;;;;;;;13.77;10.40;;;9.50;99.90;;;;;;5089526;28;20999;-79
2022/04/15 02:39:11;;;;;;;11.07;9.63;;;9.20;99.90;;;;;;5080039;28;20449;-80
2022/04/15 02:41:39;;;;;;;13.57;10.17;;;9.30;99.90;;;;;;5089810;28;20558;-80
2022/04/15 02:44:08;;;;;;;11.40;9.20;;;9.40;99.90;;;;;;5086430;28;20440;-80
2022/04/15 02:46:35;;;;;;;12.13;9.30;;;9.20;99.90;;;;;;5082477;28;20510;-80
2022/04/15 02:49:03;;;;;;;12.60;9.30;;;9.10;99.90;;;;;;5080647;28;20448;-80
2022/04/15 02:51:30;;;;;;;10.70;8.87;;;9.10;99.90;;;;;;5082139;28;20479;-80
2022/04/15 02:53:57;;;;;;;11.70;9.53;;;9.10;99.90;;;;;;5079935;28;20464;-80
2022/04/15 02:56:23;;;;;;;11.37;8.80;;;9.10;99.90;;;;;;5081862;28;20485;-80
2022/04/15 02:58:50;;;;;;;12.00;9.00;;;9.00;99.90;;;;;;5088867;28;20461;-79
2022/04/15 03:01:16;;;;;;;9.77;8.50;;;9.00;99.90;;;;;;5089165;28;20472;-79
2022/04/15 03:03:43;;;;;;;13.50;8.77;;;9.00;99.90;;;;;;5088023;28;20451;-79
2022/04/15 03:06:11;;;;;;;18.53;8.53;;;9.20;99.90;;;;;;5080831;28;20460;-79
2022/04/15 03:08:37;;;;;;;10.77;9.67;;;9.10;99.90;;;;;;5080950;28;20456;-79
2022/04/15 03:11:06;;;;;;;10.07;8.90;;;9.10;99.90;;;;;;5082271;28;20443;-79
2022/04/15 03:13:33;;;;;;;10.87;8.63;;;9.20;99.90;;;;;;5080440;28;21037;-80
2022/04/15 03:15:59;;;;;;;11.60;8.67;;;9.10;99.90;;;;;;5080091;28;20445;-80
2022/04/15 03:18:26;;;;;;;9.17;7.97;;;9.20;99.90;;;;;;5079410;28;21019;-79
2022/04/15 03:20:53;;;;;;;11.37;9.60;;;9.20;99.90;;;;;;5080280;28;20445;-79
2022/04/15 03:23:21;;;;;;;13.50;9.53;;;9.10;99.90;;;;;;5079883;28;20473;-79
2022/04/15 03:25:47;;;;;;;10.90;9.17;;;9.10;99.90;;;;;;5078979;28;20874;-79
2022/04/15 03:28:15;;;;;;;11.00;9.37;;;9.20;99.90;;;;;;5079689;28;20474;-80
2022/04/15 03:30:41;;;;;;;12.33;9.37;;;9.20;99.90;;;;;;5080289;28;20452;-79
2022/04/15 03:33:08;;;;;;;10.63;9.07;;;9.10;99.90;;;;;;5079731;28;20477;-80
2022/04/15 03:35:34;;;;;;;10.83;8.50;;;9.00;99.90;;;;;;5079959;28;20407;-80
2022/04/15 03:38:01;;;;;;;12.57;9.53;;;9.10;99.90;;;;;;5081123;28;20459;-79
2022/04/15 03:40:29;;;;;;;13.70;8.70;;;9.10;99.90;;;;;;5082811;28;20420;-80
2022/04/15 03:42:56;;;;;;;16.50;9.80;;;9.30;99.90;;;;;;5081989;28;20497;-80
2022/04/15 03:45:24;;;;;;;12.50;10.43;;;8.60;99.90;;;;;;5081093;28;20452;-80
2022/04/15 03:47:54;;;;;;;12.90;9.97;;;9.10;99.90;;;;;;5078400;28;20415;-81
2022/04/15 03:50:21;;;;;;;10.23;9.10;;;9.20;99.90;;;;;;5077868;28;20930;-80
2022/04/15 03:52:48;;;;;;;11.73;10.23;;;9.40;99.90;;;;;;5077947;28;20455;-80
2022/04/15 03:55:17;;;;;;;11.10;9.43;;;9.10;99.90;;;;;;5078135;28;20439;-80
2022/04/15 03:57:46;;;;;;;10.73;9.63;;;9.10;99.90;;;;;;5077508;28;20475;-80
2022/04/15 04:00:15;;;;;;;10.43;9.33;;;9.20;99.90;;;;;;5079994;28;20431;-80
2022/04/15 04:02:43;;;;;;;10.00;9.00;;;9.30;99.90;;;;;;5080471;28;20471;-80
2022/04/15 04:05:10;;;;;;;12.50;11.10;;;9.10;99.90;;;;;;5079695;28;20413;-81
2022/04/15 04:07:38;;;;;;;17.87;9.57;;;9.20;99.90;;;;;;5079965;28;20440;-80
2022/04/15 04:10:05;;;;;;;10.87;9.20;;;9.10;99.90;;;;;;5079726;28;20426;-80
2022/04/15 04:12:33;;;;;;;15.60;9.73;;;9.10;99.90;;;;;;5079891;28;20475;-80
2022/04/15 04:15:01;;;;;;;12.93;10.33;;;9.00;99.90;;;;;;5080308;28;20428;-80
2022/04/15 04:17:28;;;;;;;11.40;10.27;;;9.10;99.90;;;;;;5079825;28;20455;-80
2022/04/15 04:19:55;;;;;;;12.77;10.23;;;9.20;99.90;;;;;;5079568;28;20440;-80
2022/04/15 04:22:21;;;;;;;15.10;10.00;;;9.00;99.90;;;;;;5079447;28;20443;-80
2022/04/15 04:24:48;;;;;;;11.07;9.00;;;9.00;99.90;;;;;;5080044;28;20452;-80
2022/04/15 04:27:15;;;;;;;11.63;9.57;;;9.00;99.90;;;;;;5084968;28;20419;-80
2022/04/15 04:29:41;;;;;;;14.60;10.93;;;9.00;99.90;;;;;;5088814;28;20426;-80
2022/04/15 04:32:10;;;;;;;13.03;9.87;;;9.10;99.90;;;;;;5089731;28;20432;-80
2022/04/15 04:34:37;;;;;;;11.13;10.00;;;9.10;99.90;;;;;;5094002;28;20441;-80
2022/04/15 04:37:04;;;;;;;11.67;8.97;;;9.10;99.90;;;;;;5094130;28;20451;-80
2022/04/15 04:39:31;;;;;;;11.10;9.50;;;9.10;99.90;;;;;;5093895;28;20425;-80
2022/04/15 04:41:58;;;;;;;14.90;9.53;;;9.20;99.90;;;;;;5094772;28;20439;-80
2022/04/15 04:44:25;;;;;;;11.20;9.17;;;8.90;99.90;;;;;;5095036;28;20441;-80
2022/04/15 04:46:52;;;;;;;12.30;10.10;;;9.10;99.90;;;;;;5096431;28;20465;-80
2022/04/15 04:49:21;;;;;;;13.27;8.93;;;9.10;99.90;;;;;;5088143;28;20447;-80
2022/04/15 04:51:48;;;;;;;13.20;10.40;;;9.30;99.90;;;;;;5087588;28;21012;-81
2022/04/15 04:54:14;;;;;;;10.27;9.17;;;9.10;99.90;;;;;;5078340;28;20445;-81
2022/04/15 04:56:41;;;;;;;14.57;10.30;;;9.10;99.90;;;;;;5083336;28;20454;-81
2022/04/15 04:59:08;;;;;;;14.50;9.80;;;9.20;99.90;;;;;;5095270;28;20469;-80
2022/04/15 05:01:34;;;;;;;21.97;15.33;;;9.00;99.90;;;;;;5095970;28;20437;-80
2022/04/15 05:04:01;;;;;;;12.23;10.33;;;9.20;99.90;;;;;;5094526;28;20486;-80
2022/04/15 05:06:29;;;;;;;11.73;7.97;;;9.30;99.90;;;;;;5093367;28;20459;-80
2022/04/15 05:08:56;;;;;;;13.43;11.60;;;9.20;99.90;;;;;;5097896;28;20449;-80
2022/04/15 05:11:22;;;;;;;10.53;9.47;;;9.20;99.90;;;;;;5098710;28;20453;-80
2022/04/15 05:13:50;;;;;;;9.87;8.63;;;9.30;99.90;;;;;;5098070;28;20407;-80
2022/04/15 05:16:16;;;;;;;9.17;8.27;;;9.20;99.90;;;;;;5098591;28;20429;-80
2022/04/15 05:18:43;;;;;;;9.60;8.70;;;9.40;99.90;;;;;;5092580;28;20448;-80
2022/04/15 05:21:10;;;;;;;12.57;9.70;;;9.30;99.90;;;;;;5083110;28;20475;-80
2022/04/15 05:23:38;;;;;;;10.03;8.63;;;9.30;99.90;;;;;;5084567;28;20457;-81
2022/04/15 05:26:04;;;;;;;10.47;8.87;;;9.20;99.90;;;;;;5081397;28;20448;-81
2022/04/15 05:28:32;;;;;;;10.80;9.77;;;9.30;99.90;;;;;;5081465;28;20441;-81
2022/04/15 05:30:59;;;;;;;11.23;10.03;;;9.00;99.90;;;;;;5080405;28;20938;-80
2022/04/15 05:33:25;;;;;;;10.57;9.47;;;9.10;99.90;;;;;;5079868;28;20441;-81
2022/04/15 05:35:52;;;;;;;12.23;9.20;;;9.10;99.90;;;;;;5079842;28;20531;-81
2022/04/15 05:38:19;;;;;;;11.60;9.23;;;9.20;99.90;;;;;;5080218;28;20480;-81
2022/04/15 05:40:47;;;;;;;10.00;8.27;;;9.30;99.90;;;;;;5080452;28;20448;-80
2022/04/15 05:43:13;;;;;;;17.00;9.80;;;9.20;99.90;;;;;;5080617;28;20440;-81
2022/04/15 05:45:40;;;;;;;12.57;9.80;;;9.30;99.90;;;;;;5080712;28;20419;-80
2022/04/15 05:48:07;;;;;;;13.00;9.13;;;9.40;99.90;;;;;;5080401;28;20445;-82
2022/04/15 05:50:34;;;;;;;14.03;9.00;;;9.40;99.90;;;;;;5084064;28;20499;-81
2022/04/15 05:53:00;;;;;;;10.40;9.40;;;9.40;99.90;;;;;;5083684;28;20485;-81
2022/04/15 05:55:27;;;;;;;14.80;9.00;;;9.30;99.90;;;;;;5083834;28;21062;-80
2022/04/15 05:57:55;;;;;;;14.13;8.97;;;9.40;99.90;;;;;;5084209;28;20477;-80
2022/04/15 06:00:22;;;;;;;9.63;8.63;;;9.30;99.90;;;;;;5083757;28;20445;-81
2022/04/15 06:02:48;;;;;;;13.83;9.80;;;9.40;99.90;;;;;;5083462;28;20500;-80
2022/04/15 06:05:15;;;;;;;12.43;9.70;;;9.30;99.90;;;;;;5098076;28;20420;-80
2022/04/15 06:07:42;;;;;;;12.40;9.73;;;9.40;99.90;;;;;;5082556;28;20443;-81
2022/04/15 06:10:09;;;;;;;9.20;8.30;;;9.60;99.90;;;;;;5083343;28;20476;-80
2022/04/15 06:15:20;;;;;;;10.30;9.10;;;9.50;99.90;;;;;;5081076;28;20468;-80
2022/04/15 06:17:47;;;;;;;12.10;9.97;;;9.60;99.90;;;;;;5082789;28;20447;-80
2022/04/15 06:20:13;;;;;;;11.77;9.33;;;9.30;99.90;;;;;;5083235;28;20512;-81
2022/04/15 06:22:42;;;;;;;12.63;9.40;;;10.50;99.90;;;;;;5083040;28;21052;-81
2022/04/15 06:25:09;;;;;;;9.80;8.80;;;9.40;99.90;;;;;;5083527;28;20475;-80
2022/04/15 06:27:36;;;;;;;12.03;9.57;;;9.70;99.90;;;;;;5084040;28;20465;-80
2022/04/15 06:30:03;;;;;;;15.20;9.03;;;9.80;99.90;;;;;;5083642;28;20483;-81
2022/04/15 06:32:31;;;;;;;10.70;9.07;;;9.50;99.90;;;;;;5083027;28;20465;-80
2022/04/15 06:34:57;;;;;;;10.63;9.10;;;9.70;99.90;;;;;;5083115;28;20445;-81
2022/04/15 06:37:24;;;;;;;15.13;9.50;;;9.70;99.90;;;;;;5083727;28;20870;-79
2022/04/15 06:39:51;;;;;;;11.03;9.80;;;9.70;99.90;;;;;;5083847;28;20470;-80
2022/04/15 06:42:22;;;;;;;13.90;10.20;;;9.50;99.90;;;;;;5090842;28;20499;-81
2022/04/15 06:44:48;;;;;;;10.47;9.33;;;9.50;99.90;;;;;;5090138;28;20404;-80
2022/04/15 06:47:15;;;;;;;10.47;8.70;;;9.30;99.90;;;;;;5090750;28;20437;-80
2022/04/15 06:49:45;;;;;;;11.23;9.10;;;9.50;99.90;;;;;;5092279;28;20424;-80
2022/04/15 06:52:12;;;;;;;10.73;8.90;;;9.50;99.90;;;;;;5109382;22;20462;-78
2022/04/15 06:54:38;;;;;;;10.70;9.50;;;9.60;99.90;;;;;;5077740;28;20416;-78
2022/04/15 06:57:05;;;;;;;17.60;9.60;;;9.70;99.90;;;;;;5075326;28;20446;-79
2022/04/15 06:59:32;;;;;;;11.53;8.37;;;9.70;99.90;;;;;;5075540;28;20455;-78
2022/04/15 07:01:59;;;;;;;10.37;9.30;;;9.50;99.90;;;;;;5070777;28;20843;-78
2022/04/15 07:04:27;;;;;;;11.40;8.67;;;9.60;99.90;;;;;;5073568;28;20400;-78
2022/04/15 07:06:55;;;;;;;11.93;8.77;;;9.70;99.90;;;;;;5071504;28;20460;-79
2022/04/15 07:09:22;;;;;;;10.17;8.93;;;9.80;99.90;;;;;;5072893;28;20442;-79
2022/04/15 07:11:49;;;;;;;9.63;8.07;;;9.90;99.90;;;;;;5066998;28;20450;-78
2022/04/15 07:14:16;;;;;;;10.80;9.33;;;10.00;99.90;;;;;;5061456;28;20424;-79
2022/04/15 07:16:43;;;;;;;12.00;10.33;;;9.90;99.90;;;;;;5061759;28;20450;-78
2022/04/15 07:19:10;;;;;;;10.63;8.93;;;9.90;99.90;;;;;;5061663;28;20460;-78
2022/04/15 07:21:37;;;;;;;12.63;9.00;;;10.00;99.90;;;;;;5065579;28;20440;-79
2022/04/15 07:24:07;;;;;;;10.70;8.30;;;9.90;99.90;;;;;;5070734;28;20424;-79
2022/04/15 07:26:34;;;;;;;10.20;9.20;;;10.00;99.90;;;;;;5065534;28;20486;-79
2022/04/15 07:29:01;;;;;;;9.93;8.93;;;9.90;99.90;;;;;;5063002;28;20441;-80
2022/04/15 07:31:28;;;;;;;9.93;8.90;;;9.90;99.90;;;;;;5062279;28;20432;-79
2022/04/15 07:33:55;;;;;;;11.63;9.07;;;10.00;99.90;;;;;;5062100;28;20420;-79
2022/04/15 07:39:09;;;;;;;9.10;8.20;;;10.00;99.90;;;;;;5061084;28;20493;-79
2022/04/15 07:41:37;;;;;;;11.20;9.50;;;9.80;99.90;;;;;;5059957;28;20432;-79
2022/04/15 07:44:03;;;;;;;9.73;8.70;;;9.70;99.90;;;;;;5060460;28;20884;-79
2022/04/15 07:46:30;;;;;;;11.23;8.80;;;9.80;99.90;;;;;;5061693;28;20463;-78
2022/04/15 07:48:57;;;;;;;9.53;7.53;;;9.90;99.90;;;;;;5061513;28;20994;-79
2022/04/15 07:51:23;;;;;;;11.53;9.10;;;9.60;99.90;;;;;;5062035;28;20452;-78
2022/04/15 07:53:50;;;;;;;10.30;8.57;;;9.80;99.90;;;;;;5060645;28;20484;-79
2022/04/15 07:56:18;;;;;;;10.87;9.43;;;9.70;99.90;;;;;;5063712;28;20670;-81
2022/04/15 07:58:45;;;;;;;12.33;8.97;;;9.70;99.90;;;;;;5062390;28;20535;-80
2022/04/15 08:01:12;;;;;;;11.10;8.90;;;9.90;99.90;;;;;;5061222;28;20453;-78
2022/04/15 08:03:39;;;;;;;15.87;10.77;;;10.00;99.90;;;;;;5059912;28;20473;-79
2022/04/15 08:06:06;;;;;;;12.57;10.23;;;10.00;99.90;;;;;;5061822;28;20431;-79
2022/04/15 08:08:33;;;;;;;13.73;10.90;;;9.90;99.90;;;;;;5061112;28;20438;-79
2022/04/15 08:11:00;;;;;;;14.33;10.50;;;10.00;99.90;;;;;;5061613;28;20449;-78
2022/04/15 08:13:32;;;;;;;10.80;9.10;;;10.00;99.90;;;;;;5061062;28;21046;-79
2022/04/15 08:15:58;;;;;;;11.07;9.43;;;10.00;99.90;;;;;;5062581;28;20526;-80
2022/04/15 08:18:26;;;;;;;8.67;7.47;;;9.80;99.90;;;;;;5060271;28;20485;-79
2022/04/15 08:20:55;;;;;;;13.93;9.90;;;9.70;99.90;;;;;;5059918;28;20446;-78
2022/04/15 08:23:22;;;;;;;13.90;10.10;;;9.80;99.90;;;;;;5059949;28;20518;-78
2022/04/15 08:25:49;;;;;;;12.50;8.90;;;9.90;99.90;;;;;;5062438;28;20445;-78
2022/04/15 08:28:16;;;;;;;10.00;8.07;;;9.80;99.90;;;;;;5064102;28;20427;-79
2022/04/15 08:30:44;;;;;;;11.60;8.50;;;9.60;99.90;;;;;;5063804;28;20442;-78
2022/04/15 08:33:10;;;;;;;10.73;8.70;;;9.60;99.90;;;;;;5066232;28;20470;-78
2022/04/15 08:35:37;;;;;;;10.20;7.97;;;9.60;99.90;;;;;;5070781;28;20463;-79
2022/04/15 08:38:04;;;;;;;10.37;8.73;;;9.50;99.90;;;;;;5060284;28;20477;-80
2022/04/15 08:40:32;;;;;;;11.07;9.17;;;9.60;99.90;;;;;;5061569;28;20452;-78
2022/04/15 08:43:00;;;;;;;11.20;9.97;;;9.40;99.90;;;;;;5068818;28;20462;-79
2022/04/15 08:45:28;;;;;;;10.93;9.57;;;9.60;99.90;;;;;;5062314;28;20481;-79
2022/04/15 08:47:59;;;;;;;11.57;9.70;;;9.70;99.90;;;;;;5062588;28;20425;-78
2022/04/15 08:50:28;;;;;;;11.77;8.80;;;9.60;99.90;;;;;;5061556;28;20517;-80
2022/04/15 08:52:55;;;;;;;11.40;9.20;;;9.40;99.90;;;;;;5059478;28;20479;-79
2022/04/15 08:55:22;;;;;;;12.83;9.77;;;9.60;99.90;;;;;;5061543;28;20787;-79
2022/04/15 08:57:49;;;;;;;13.83;10.40;;;9.50;99.90;;;;;;5061352;28;20456;-79
2022/04/15 09:00:17;;;;;;;14.60;11.40;;;9.60;99.90;;;;;;5061432;28;20454;-79
2022/04/15 09:02:43;;;;;;;13.83;10.13;;;9.80;99.90;;;;;;5060373;28;20467;-80
2022/04/15 09:05:12;;;;;;;12.10;10.40;;;9.80;99.90;;;;;;5061750;28;20457;-79
2022/04/15 09:07:40;;;;;;;15.30;10.83;;;9.60;99.90;;;;;;5060827;28;20439;-80
2022/04/15 09:10:10;;;;;;;12.73;10.17;;;9.70;99.90;;;;;;5061594;28;20417;-78
2022/04/15 09:12:39;;;;;;;19.10;11.57;;;9.60;99.90;;;;;;5061139;28;20781;-79
2022/04/15 09:15:14;;;;;;;14.10;9.23;;;9.50;99.90;;;;;;5062151;28;20525;-79
2022/04/15 09:17:42;;;;;;;12.73;10.00;;;9.50;99.90;;;;;;5065779;28;20434;-79
2022/04/15 09:20:11;;;;;;;15.93;10.73;;;9.60;99.90;;;;;;5066859;28;20480;-79
2022/04/15 09:22:38;;;;;;;18.53;11.27;;;9.50;99.90;;;;;;5066293;28;20444;-78
2022/04/15 09:25:06;;;;;;;13.93;10.80;;;9.20;99.90;;;;;;5071274;28;20446;-79
2022/04/15 09:27:35;;;;;;;12.80;9.93;;;9.30;99.90;;;;;;5071086;28;20436;-79
2022/04/15 09:30:01;;;;;;;15.70;11.57;;;9.60;99.90;;;;;;5073506;28;20445;-79
2022/04/15 09:32:30;;;;;;;10.77;9.67;;;9.70;99.90;;;;;;5074388;28;20440;-79
2022/04/15 09:34:59;;;;;;;13.03;11.50;;;9.70;99.90;;;;;;5070944;28;20442;-79
2022/04/15 09:37:30;;;;;;;13.53;11.47;;;9.60;99.90;;;;;;5063398;28;20496;-78
2022/04/15 09:40:05;;;;;;;14.10;10.17;;;9.60;99.90;;;;;;5072681;28;20556;-80
2022/04/15 09:42:34;;;;;;;10.77;9.67;;;9.70;99.90;;;;;;5066636;28;20564;-78
2022/04/15 09:45:12;;;;;;;12.40;10.40;;;9.70;99.90;;;;;;5068570;28;20426;-79
2022/04/15 09:47:39;;;;;;;13.03;11.07;;;9.70;99.90;;;;;;5068955;28;20425;-79
2022/04/15 09:50:07;;;;;;;10.03;8.37;;;9.50;99.90;;;;;;5075604;28;20404;-79
2022/04/15 09:52:35;;;;;;;12.67;10.53;;;9.40;99.90;;;;;;5072364;28;20456;-78
2022/04/15 09:55:02;;;;;;;14.00;10.17;;;9.50;99.90;;;;;;5073033;28;20456;-78
2022/04/15 09:57:34;;;;;;;12.73;10.57;;;9.40;99.90;;;;;;5067995;28;20473;-79
2022/04/15 10:00:04;;;;;;;12.43;10.20;;;9.40;99.90;;;;;;5069874;28;20471;-78
2022/04/15 10:02:35;;;;;;;12.73;9.40;;;9.50;99.90;;;;;;5069271;28;20447;-79
2022/04/15 10:05:03;;;;;;;10.93;9.70;;;9.40;99.90;;;;;;5059533;28;20453;-79
2022/04/15 10:07:33;;;;;;;11.67;9.47;;;9.40;99.90;;;;;;5060099;28;20452;-79
2022/04/15 10:10:02;;;;;;;14.60;11.07;;;9.30;99.90;;;;;;5063971;28;20893;-79
2022/04/15 10:12:29;;;;;;;14.77;10.87;;;9.30;99.90;;;;;;5059766;28;20493;-78
2022/04/15 10:14:56;;;;;;;14.47;10.53;;;9.30;99.90;;;;;;5060617;28;20441;-80
2022/04/15 10:17:24;;;;;;;14.93;12.17;;;9.30;99.90;;;;;;5059319;28;20446;-79
2022/04/15 10:19:52;;;;;;;15.53;11.20;;;9.20;99.90;;;;;;5058035;28;21039;-80
2022/04/15 10:22:20;;;;;;;11.17;9.93;;;9.20;99.90;;;;;;5057244;28;20496;-79
2022/04/15 10:24:47;;;;;;;15.93;9.83;;;9.20;99.90;;;;;;5058017;28;20950;-79
2022/04/15 10:27:15;;;;;;;11.93;9.60;;;9.20;99.90;;;;;;5057728;28;20424;-79
2022/04/15 10:29:46;;;;;;;13.07;9.83;;;9.10;99.90;;;;;;5057677;28;20443;-79
2022/04/15 10:32:14;;;;;;;16.20;12.40;;;8.90;99.90;;;;;;5057919;28;20470;-78
2022/04/15 10:34:48;;;;;;;14.43;10.67;;;9.10;99.90;;;;;;5058398;28;20532;-80
2022/04/15 10:37:15;;;;;;;11.07;9.30;;;9.00;99.90;;;;;;5061440;28;20495;-79
2022/04/15 10:39:48;;;;;;;13.20;8.40;;;9.00;99.90;;;;;;5067249;28;20458;-79
2022/04/15 10:42:20;;;;;;;11.97;10.13;;;8.90;99.90;;;;;;5076154;28;20472;-78
2022/04/15 10:44:47;;;;;;;10.50;8.73;;;9.00;99.90;;;;;;5076696;28;20488;-79
2022/04/15 10:47:29;;;;;;;11.40;9.70;;;9.00;99.90;;;;;;5074244;28;20445;-78
2022/04/15 10:50:01;;;;;;;9.70;8.70;;;8.90;99.90;;;;;;5073389;28;20425;-79
2022/04/15 10:52:30;;;;;;;11.70;8.93;;;9.00;99.90;;;;;;5072478;28;20990;-79
2022/04/15 10:54:59;;;;;;;12.38;9.52;;;9.10;99.90;;;;;;5070484;28;20444;-79
2022/04/15 10:57:35;;;;;;;13.67;10.03;;;9.20;99.90;;;;;;5069424;28;20211;-78
2022/04/15 11:02:50;;;;;;;13.03;7.93;;;8.90;99.90;;;;;;5061446;28;20865;-79
2022/04/15 11:05:35;;;;;;;10.60;9.10;;;9.10;99.90;;;;;;5061100;28;20428;-79
2022/04/15 11:08:11;;;;;;;11.60;9.43;;;9.30;99.90;;;;;;5061456;28;20827;-81
2022/04/15 11:10:44;;;;;;;11.77;8.60;;;9.30;99.90;;;;;;5061439;28;20524;-79
2022/04/15 11:13:32;;;;;;;8.00;7.20;;;9.40;99.90;;;;;;5061184;28;20473;-79
2022/04/15 11:16:01;;;;;;;7.53;6.60;;;9.10;99.90;;;;;;5062618;28;20921;-80
2022/04/15 11:18:50;;;;;;;7.90;7.10;;;9.30;99.90;;;;;;5061688;28;20450;-79
2022/04/15 11:21:19;;;;;;;11.03;7.33;;;9.30;99.90;;;;;;5063173;28;20435;-79
2022/04/15 11:23:50;;;;;;;6.50;5.87;;;9.30;99.90;;;;;;5066108;28;20472;-79
2022/04/15 11:26:17;;;;;;;9.97;7.50;;;9.30;99.90;;;;;;5065000;28;20446;-79
2022/04/15 11:28:50;;;;;;;6.47;5.27;;;9.30;99.90;;;;;;5062649;28;20428;-78
2022/04/15 11:31:24;;;;;;;7.30;5.70;;;9.30;99.90;;;;;;5060042;28;20432;-78
2022/04/15 11:33:52;;;;;;;7.00;6.30;;;9.20;99.90;;;;;;5059573;28;20480;-79
2022/04/15 11:36:20;;;;;;;7.53;6.43;;;9.30;99.90;;;;;;5060882;28;20786;-79
2022/04/15 11:38:47;;;;;;;9.53;5.67;;;9.50;99.90;;;;;;5060067;28;20451;-80
2022/04/15 11:41:17;;;;;;;7.63;5.07;;;9.50;99.90;;;;;;5060367;28;20424;-79
2022/04/15 11:44:00;;;;;;;7.93;5.97;;;9.50;99.90;;;;;;5059850;28;20436;-79
2022/04/15 11:46:28;;;;;;;5.67;4.57;;;9.40;99.90;;;;;;5059365;28;20441;-80
2022/04/15 11:48:56;;;;;;;6.13;4.70;;;9.40;99.90;;;;;;5058473;28;20442;-79
2022/04/15 11:51:24;;;;;;;5.80;4.87;;;9.60;99.90;;;;;;5058461;28;20549;-80
2022/04/15 11:53:51;;;;;;;5.80;4.70;;;9.50;99.90;;;;;;5063130;28;20468;-79
2022/04/15 11:56:17;;;;;;;4.53;4.13;;;9.50;99.90;;;;;;5060999;28;20449;-79
2022/04/15 11:58:45;;;;;;;4.77;4.30;;;9.40;99.90;;;;;;5060948;28;20481;-82
2022/04/15 12:01:25;;;;;;;5.67;5.10;;;9.30;99.90;;;;;;5060826;28;20449;-78
2022/04/15 12:03:52;;;;;;;3.93;3.63;;;9.40;99.90;;;;;;5060358;28;20963;-78
2022/04/15 12:06:19;;;;;;;4.83;4.37;;;9.40;99.90;;;;;;5060105;28;20453;-79
2022/04/15 12:08:46;;;;;;;5.50;5.00;;;9.30;99.90;;;;;;5061124;28;20441;-79
2022/04/15 12:11:13;;;;;;;3.53;3.23;;;9.20;99.90;;;;;;5059966;28;20491;-80
2022/04/15 12:13:39;;;;;;;3.83;3.50;;;9.40;99.90;;;;;;5060062;28;20470;-79
2022/04/15 12:16:06;;;;;;;3.80;3.50;;;9.50;99.90;;;;;;5060748;28;20446;-80
2022/04/15 12:18:34;;;;;;;3.73;3.33;;;9.50;99.90;;;;;;5068665;28;20449;-79
2022/04/15 12:21:01;;;;;;;4.37;3.97;;;9.50;99.90;;;;;;5072973;28;20453;-79
2022/04/15 12:23:28;;;;;;;4.60;4.00;;;9.50;99.90;;;;;;5062624;28;20458;-79
2022/04/15 12:26:09;;;;;;;5.70;3.87;;;9.60;99.90;;;;;;5066815;28;20450;-79
2022/04/15 12:31:29;;;;;;;5.20;4.37;;;9.60;99.90;;;;;;5066756;28;20405;-79
2022/04/15 12:34:01;;;;;;;4.80;4.40;;;9.60;99.90;;;;;;5069171;28;20471;-80
2022/04/15 12:36:40;;;;;;;3.90;3.60;;;9.50;99.90;;;;;;5064835;28;20441;-79
2022/04/15 12:39:07;;;;;;;5.27;3.67;;;9.50;99.90;;;;;;5061979;28;20477;-80
2022/04/15 12:41:43;;;;;;;4.73;3.83;;;9.50;99.90;;;;;;5062489;28;20428;-80
2022/04/15 12:44:18;;;;;;;4.43;4.10;;;9.40;99.90;;;;;;5071838;28;20442;-79
2022/04/15 12:46:46;;;;;;;5.57;4.93;;;9.50;99.90;;;;;;5073350;28;20453;-78
2022/04/15 12:49:34;;;;;;;6.27;4.80;;;9.50;99.90;;;;;;5071511;28;20504;-78
2022/04/15 12:52:11;;;;;;;4.00;3.70;;;9.60;99.90;;;;;;5106571;22;20463;-79
2022/04/15 12:54:59;;;;;;;4.20;3.90;;;9.70;99.90;;;;;;5062755;28;20474;-79
2022/04/15 12:57:30;;;;;;;4.60;4.20;;;9.70;99.90;;;;;;5070029;28;20456;-80
2022/04/15 12:59:57;;;;;;;4.63;4.13;;;9.80;99.90;;;;;;5061917;28;20466;-79
2022/04/15 13:02:24;;;;;;;4.33;4.00;;;9.90;99.90;;;;;;5069419;28;20424;-81